Emmanuel Tomasos — C6SS7 — position and weather

sailwx.info

Track history (hours):
 
Tides and Currents Weather Stations Pressure Air Temp Water Temp Dewpoint Dewpoint Depression Visibility Wind Speed Wind Dir Waves Ship Positions

Emmanuel Tomasos

Last reported at 2015-Mar-04 16:16 UTC. Time now 2015-Mar-04 18:53 UTC.
Position N 50°31' E 000°17'.

Length 182 m; draft 11 m.

Type: Tanker. MMSI: 311459000.

Date/timePositionNaut miles runAvg speedWind from/ knotsBaromVisibWave heightAir tempDewpointWater temp
2015-Mar-04 16:16N 50°31' E 000°17'1014.1
2015-Mar-04 15:34N 50°34' E 000°32'1413.8
2015-Mar-04 14:33N 50°41' E 000°51'2512.1
2015-Mar-04 12:31N 50°57' E 001°21'1010.3
2015-Mar-04 11:33N 51°04' E 001°32'1010.2
2015-Mar-04 10:34N 51°12' E 001°43'1211.8
2015-Mar-04 09:33N 51°21' E 001°54'1313.4
2015-Mar-04 08:33N 51°32' E 002°07'1514.3
2015-Mar-04 07:30N 51°44' E 002°22'38211.3
2015-Mar-02 21:33N 57°13' E 007°56'9410.5
2015-Mar-02 12:33N 57°52' E 010°36'1111.2
2015-Mar-02 11:32N 57°44' E 010°52'1313.1
2015-Mar-02 10:33N 57°36' E 011°10'1414.1
2015-Mar-02 09:33N 57°25' E 011°27'1413.7
2015-Mar-02 08:33N 57°12' E 011°36'1413.9
2015-Mar-02 07:33N 56°59' E 011°45'1414.2
2015-Mar-02 06:33N 56°46' E 011°53'1313.3
2015-Mar-02 05:33N 56°34' E 011°42'11911.9
2015-Mar-01 19:31N 54°38' E 010°57'1313.3
2015-Mar-01 18:34N 54°35' E 011°18'1313.4
2015-Mar-01 17:33N 54°29' E 011°39'1313.1
2015-Mar-01 16:34N 54°27' E 012°01'1111.2
2015-Mar-01 15:33N 54°34' E 012°15'1111.1
2015-Mar-01 14:34N 54°42' E 012°29'1312.8
2015-Mar-01 13:33N 54°49' E 012°48'1312.6
2015-Mar-01 12:33N 54°53' E 013°09'1312.0
2015-Mar-01 11:29N 54°57' E 013°29'1111.8
2015-Mar-01 10:34N 55°01' E 013°47'1111.1
2015-Mar-01 09:34N 55°05' E 014°05'1211.5
2015-Mar-01 08:34N 55°14' E 014°18'1111.4
2015-Mar-01 07:34N 55°23' E 014°31'1211.6
2015-Mar-01 06:33N 55°30' E 014°46'1212.5
2015-Mar-01 05:34N 55°36' E 015°06'1312.3
2015-Mar-01 04:31N 55°39' E 015°28'35112.1
2015-Feb-27 23:33N 59°39' E 023°28'1313.2
2015-Feb-27 22:34N 59°42' E 023°53'1313.3
2015-Feb-27 21:34N 59°46' E 024°18'1313.2
2015-Feb-27 20:33N 59°49' E 024°44'5613.1
2015-Feb-27 16:15N 60°01' E 026°34'912.9
2015-Feb-27 15:31N 60°00' E 026°52'  
2015-Feb-25 07:33N 60°07' E 027°33'1413.7
2015-Feb-25 06:33N 59°60' E 027°10'1312.9
2015-Feb-25 05:33N 59°59' E 026°44'1413.5
2015-Feb-25 04:33N 59°56' E 026°18'1513.7
2015-Feb-25 03:28N 59°52' E 025°49'1313.8
2015-Feb-25 02:30N 59°50' E 025°23'1313.8
2015-Feb-25 01:33N 59°47' E 024°58'1413.7
2015-Feb-25 00:33N 59°45' E 024°31'1414.0
2015-Feb-24 23:31N 59°40' E 024°04'1414.0
2015-Feb-24 22:33N 59°36' E 023°38'1513.8
2015-Feb-24 21:30N 59°32' E 023°10'35013.0
2015-Feb-23 18:34N 55°32' E 015°15'1414.2
2015-Feb-23 17:33N 55°27' E 014°52'1413.7
2015-Feb-23 16:33N 55°19' E 014°32'1313.3
2015-Feb-23 15:33N 55°11' E 014°14'1413.8
2015-Feb-23 14:33N 55°11' E 013°50'1413.7
2015-Feb-23 13:30N 55°12' E 013°24'1314.0
2015-Feb-23 12:33N 55°13' E 013°02'1313.5
2015-Feb-23 11:33N 55°18' E 012°39'1212.1
2015-Feb-23 10:33N 55°30' E 012°41'9 8.9
2015-Feb-23 09:33N 55°39' E 012°41'1211.5
2015-Feb-23 08:33N 55°50' E 012°42'1211.6
2015-Feb-23 07:33N 56°01' E 012°38'9 8.7
2015-Feb-23 06:33N 56°08' E 012°28'1211.9
2015-Feb-23 05:33N 56°14' E 012°10'1312.2
2015-Feb-23 04:32N 56°25' E 011°59'1212.7
2015-Feb-23 03:33N 56°38' E 011°56'1312.7
2015-Feb-23 02:32N 56°50' E 011°49'1212.5
2015-Feb-23 01:33N 57°02' E 011°41'1212.3
2015-Feb-23 00:33N 57°13' E 011°34'1313.1
2015-Feb-22 23:33N 57°26' E 011°26'1312.9
2015-Feb-22 22:33N 57°35' E 011°10'1313.3
2015-Feb-22 21:33N 57°44' E 010°52'1414.1
2015-Feb-22 20:33N 57°50' E 010°27'  
Track history (hours):
 
Tides and Currents Weather Stations Pressure Air Temp Water Temp Dewpoint Dewpoint Depression Visibility Wind Speed Wind Dir Waves Ship Positions

Emmanuel Tomasos

Last reported at 2015-Mar-04 16:16 UTC. Time now 2015-Mar-04 18:53 UTC.
Position N 50°31' E 000°17'.

Length 182 m; draft 11 m.

Type: Tanker. MMSI: 311459000.

Date/timePositionNaut miles runAvg speedWind from/ knotsBaromVisibWave heightAir tempDewpointWater temp
2015-Mar-04 16:16N 50°31' E 000°17'1014.1
2015-Mar-04 15:34N 50°34' E 000°32'1413.8
2015-Mar-04 14:33N 50°41' E 000°51'2512.1
2015-Mar-04 12:31N 50°57' E 001°21'1010.3
2015-Mar-04 11:33N 51°04' E 001°32'1010.2
2015-Mar-04 10:34N 51°12' E 001°43'1211.8
2015-Mar-04 09:33N 51°21' E 001°54'1313.4
2015-Mar-04 08:33N 51°32' E 002°07'1514.3
2015-Mar-04 07:30N 51°44' E 002°22'38211.3
2015-Mar-02 21:33N 57°13' E 007°56'9410.5
2015-Mar-02 12:33N 57°52' E 010°36'1111.2
2015-Mar-02 11:32N 57°44' E 010°52'1313.1
2015-Mar-02 10:33N 57°36' E 011°10'1414.1
2015-Mar-02 09:33N 57°25' E 011°27'1413.7
2015-Mar-02 08:33N 57°12' E 011°36'1413.9
2015-Mar-02 07:33N 56°59' E 011°45'1414.2
2015-Mar-02 06:33N 56°46' E 011°53'1313.3
2015-Mar-02 05:33N 56°34' E 011°42'11911.9
2015-Mar-01 19:31N 54°38' E 010°57'1313.3
2015-Mar-01 18:34N 54°35' E 011°18'1313.4
2015-Mar-01 17:33N 54°29' E 011°39'1313.1
2015-Mar-01 16:34N 54°27' E 012°01'1111.2
2015-Mar-01 15:33N 54°34' E 012°15'1111.1
2015-Mar-01 14:34N 54°42' E 012°29'1312.8
2015-Mar-01 13:33N 54°49' E 012°48'1312.6
2015-Mar-01 12:33N 54°53' E 013°09'1312.0
2015-Mar-01 11:29N 54°57' E 013°29'1111.8
2015-Mar-01 10:34N 55°01' E 013°47'1111.1
2015-Mar-01 09:34N 55°05' E 014°05'1211.5
2015-Mar-01 08:34N 55°14' E 014°18'1111.4
2015-Mar-01 07:34N 55°23' E 014°31'1211.6
2015-Mar-01 06:33N 55°30' E 014°46'1212.5
2015-Mar-01 05:34N 55°36' E 015°06'1312.3
2015-Mar-01 04:31N 55°39' E 015°28'35112.1
2015-Feb-27 23:33N 59°39' E 023°28'1313.2
2015-Feb-27 22:34N 59°42' E 023°53'1313.3
2015-Feb-27 21:34N 59°46' E 024°18'1313.2
2015-Feb-27 20:33N 59°49' E 024°44'5613.1
2015-Feb-27 16:15N 60°01' E 026°34'912.9
2015-Feb-27 15:31N 60°00' E 026°52'  
2015-Feb-25 07:33N 60°07' E 027°33'1413.7
2015-Feb-25 06:33N 59°60' E 027°10'1312.9
2015-Feb-25 05:33N 59°59' E 026°44'1413.5
2015-Feb-25 04:33N 59°56' E 026°18'1513.7
2015-Feb-25 03:28N 59°52' E 025°49'1313.8
2015-Feb-25 02:30N 59°50' E 025°23'1313.8
2015-Feb-25 01:33N 59°47' E 024°58'1413.7
2015-Feb-25 00:33N 59°45' E 024°31'1414.0
2015-Feb-24 23:31N 59°40' E 024°04'1414.0
2015-Feb-24 22:33N 59°36' E 023°38'1513.8
2015-Feb-24 21:30N 59°32' E 023°10'35013.0
2015-Feb-23 18:34N 55°32' E 015°15'1414.2
2015-Feb-23 17:33N 55°27' E 014°52'1413.7
2015-Feb-23 16:33N 55°19' E 014°32'1313.3
2015-Feb-23 15:33N 55°11' E 014°14'1413.8
2015-Feb-23 14:33N 55°11' E 013°50'1413.7
2015-Feb-23 13:30N 55°12' E 013°24'1314.0
2015-Feb-23 12:33N 55°13' E 013°02'1313.5
2015-Feb-23 11:33N 55°18' E 012°39'1212.1
2015-Feb-23 10:33N 55°30' E 012°41'9 8.9
2015-Feb-23 09:33N 55°39' E 012°41'1211.5
2015-Feb-23 08:33N 55°50' E 012°42'1211.6
2015-Feb-23 07:33N 56°01' E 012°38'9 8.7
2015-Feb-23 06:33N 56°08' E 012°28'1211.9
2015-Feb-23 05:33N 56°14' E 012°10'1312.2
2015-Feb-23 04:32N 56°25' E 011°59'1212.7
2015-Feb-23 03:33N 56°38' E 011°56'1312.7
2015-Feb-23 02:32N 56°50' E 011°49'1212.5
2015-Feb-23 01:33N 57°02' E 011°41'1212.3
2015-Feb-23 00:33N 57°13' E 011°34'1313.1
2015-Feb-22 23:33N 57°26' E 011°26'1312.9
2015-Feb-22 22:33N 57°35' E 011°10'1313.3
2015-Feb-22 21:33N 57°44' E 010°52'1414.1
2015-Feb-22 20:33N 57°50' E 010°27'  

Dump ship's entire track history